Marola — IBFL — position and weather

sailwx.info

Track history (hours):
 
Tides and Currents Weather Stations Pressure Air Temp Water Temp Dewpoint Dewpoint Depression Visibility Wind Speed Wind Dir Waves Ship Positions

Marola

Last reported at 2014-Nov-13 12:09 UTC. Time now 2014-Nov-22 08:24 UTC.
Position N 29°55' W 089°57'.
Warning: this ship's position is 8 days out of date.

Length 180 m; draft 8.1 m.

Type: Ship. MMSI: 247094900.

Date/timePositionNaut miles runAvg speedWind from/ knotsBaromVisibWave heightAir tempDewpointWater temp
2014-Nov-13 12:09N 29°55' W 089°57'6 9.7
2014-Nov-13 11:33N 29°57' W 090°03'6 6.2
2014-Nov-13 10:32N 29°56' W 090°11'5 0.1
2014-Nov-11 07:30N 29°58' W 090°16'0 0.0
2014-Nov-11 06:24N 29°58' W 090°16'0 0.0
2014-Nov-11 05:30N 29°58' W 090°16'0 0.0
2014-Nov-11 04:30N 29°58' W 090°16'0 0.0
2014-Nov-11 03:30N 29°58' W 090°16'0 0.0
2014-Nov-10 14:30N 29°58' W 090°16'0 0.0
2014-Nov-10 13:12N 29°58' W 090°16'0 0.0
2014-Nov-10 12:28N 29°58' W 090°16'2 2.2
2014-Nov-10 11:29N 29°58' W 090°14'5 5.6
2014-Nov-10 10:33N 29°56' W 090°08'7 6.7
2014-Nov-10 09:32N 29°57' W 090°00'5 4.5
2014-Nov-10 08:28N 29°53' W 089°57'1110.0
2014-Nov-10 07:21N 29°42' W 089°58'38212.8
2014-Nov-09 01:27N 27°36' W 083°07'1213.8
2014-Nov-09 00:33N 27°36' W 082°54'1413.7
2014-Nov-08 23:33N 27°38' W 082°38'1313.1
2014-Nov-08 22:33N 27°48' W 082°29'7 7.0
2014-Nov-08 21:33N 27°54' W 082°25'0 0.0
2014-Nov-08 20:32N 27°54' W 082°25'0 0.0
2014-Nov-08 19:32N 27°54' W 082°25'0 0.0
2014-Nov-08 18:32N 27°54' W 082°25'0 0.0
2014-Nov-08 17:29N 27°54' W 082°25'0 0.0
2014-Nov-08 16:32N 27°54' W 082°25'0 0.0
2014-Nov-08 15:29N 27°54' W 082°25'0 0.0
2014-Nov-08 14:32N 27°54' W 082°25'0 0.0
2014-Nov-08 13:32N 27°54' W 082°25'0 0.0
2014-Nov-08 12:32N 27°54' W 082°25'0 0.0
2014-Nov-08 11:32N 27°54' W 082°25'0 0.0
2014-Nov-08 10:32N 27°54' W 082°25'0 0.0
2014-Nov-08 09:32N 27°54' W 082°25'0 0.0
2014-Nov-08 08:32N 27°54' W 082°25'0 0.0
2014-Nov-08 07:32N 27°54' W 082°25'0 0.0
2014-Nov-08 06:32N 27°54' W 082°25'0 0.0
2014-Nov-08 05:32N 27°54' W 082°25'0 0.0
2014-Nov-08 04:32N 27°54' W 082°25'0 0.0
2014-Nov-08 03:29N 27°54' W 082°25'0 0.0
2014-Nov-08 02:29N 27°54' W 082°25'0 0.0
2014-Nov-08 01:32N 27°54' W 082°25'0 0.0
2014-Nov-08 00:32N 27°54' W 082°25'0 0.0
2014-Nov-07 23:32N 27°54' W 082°25'0 0.0
2014-Nov-07 22:32N 27°54' W 082°25'0 0.0
2014-Nov-07 21:32N 27°54' W 082°25'0 0.0
2014-Nov-07 20:32N 27°54' W 082°25'0 0.0
2014-Nov-07 19:32N 27°54' W 082°25'0 0.0
2014-Nov-07 18:32N 27°54' W 082°25'0 0.0
2014-Nov-07 17:32N 27°54' W 082°25'0 0.0
2014-Nov-07 16:32N 27°54' W 082°25'1 1.2
2014-Nov-07 15:34N 27°53' W 082°26'1611.1
2014-Nov-07 14:06N 27°40' W 082°36'611.6
2014-Nov-07 13:33N 27°37' W 082°42'1211.8
2014-Nov-07 12:33N 27°36' W 082°55'7 6.9
2014-Nov-07 11:33N 27°38' W 083°03'1 0.6
2014-Nov-07 10:11N 27°37' W 083°04'0 0.0
2014-Nov-07 09:32N 27°37' W 083°04'0 0.0
2014-Nov-07 08:32N 27°37' W 083°04'0 0.0
2014-Nov-07 07:29N 27°37' W 083°04'0 0.0
2014-Nov-07 06:32N 27°37' W 083°04'5 5.4
2014-Nov-07 05:33N 27°32' W 083°03'8514.2
2014-Nov-06 23:33N 26°07' W 083°08'  
Track history (hours):
 
Tides and Currents Weather Stations Pressure Air Temp Water Temp Dewpoint Dewpoint Depression Visibility Wind Speed Wind Dir Waves Ship Positions

Marola

Last reported at 2014-Nov-13 12:09 UTC. Time now 2014-Nov-22 08:24 UTC.
Position N 29°55' W 089°57'.
Warning: this ship's position is 8 days out of date.

Length 180 m; draft 8.1 m.

Type: Ship. MMSI: 247094900.

Date/timePositionNaut miles runAvg speedWind from/ knotsBaromVisibWave heightAir tempDewpointWater temp
2014-Nov-13 12:09N 29°55' W 089°57'6 9.7
2014-Nov-13 11:33N 29°57' W 090°03'6 6.2
2014-Nov-13 10:32N 29°56' W 090°11'5 0.1
2014-Nov-11 07:30N 29°58' W 090°16'0 0.0
2014-Nov-11 06:24N 29°58' W 090°16'0 0.0
2014-Nov-11 05:30N 29°58' W 090°16'0 0.0
2014-Nov-11 04:30N 29°58' W 090°16'0 0.0
2014-Nov-11 03:30N 29°58' W 090°16'0 0.0
2014-Nov-10 14:30N 29°58' W 090°16'0 0.0
2014-Nov-10 13:12N 29°58' W 090°16'0 0.0
2014-Nov-10 12:28N 29°58' W 090°16'2 2.2
2014-Nov-10 11:29N 29°58' W 090°14'5 5.6
2014-Nov-10 10:33N 29°56' W 090°08'7 6.7
2014-Nov-10 09:32N 29°57' W 090°00'5 4.5
2014-Nov-10 08:28N 29°53' W 089°57'1110.0
2014-Nov-10 07:21N 29°42' W 089°58'38212.8
2014-Nov-09 01:27N 27°36' W 083°07'1213.8
2014-Nov-09 00:33N 27°36' W 082°54'1413.7
2014-Nov-08 23:33N 27°38' W 082°38'1313.1
2014-Nov-08 22:33N 27°48' W 082°29'7 7.0
2014-Nov-08 21:33N 27°54' W 082°25'0 0.0
2014-Nov-08 20:32N 27°54' W 082°25'0 0.0
2014-Nov-08 19:32N 27°54' W 082°25'0 0.0
2014-Nov-08 18:32N 27°54' W 082°25'0 0.0
2014-Nov-08 17:29N 27°54' W 082°25'0 0.0
2014-Nov-08 16:32N 27°54' W 082°25'0 0.0
2014-Nov-08 15:29N 27°54' W 082°25'0 0.0
2014-Nov-08 14:32N 27°54' W 082°25'0 0.0
2014-Nov-08 13:32N 27°54' W 082°25'0 0.0
2014-Nov-08 12:32N 27°54' W 082°25'0 0.0
2014-Nov-08 11:32N 27°54' W 082°25'0 0.0
2014-Nov-08 10:32N 27°54' W 082°25'0 0.0
2014-Nov-08 09:32N 27°54' W 082°25'0 0.0
2014-Nov-08 08:32N 27°54' W 082°25'0 0.0
2014-Nov-08 07:32N 27°54' W 082°25'0 0.0
2014-Nov-08 06:32N 27°54' W 082°25'0 0.0
2014-Nov-08 05:32N 27°54' W 082°25'0 0.0
2014-Nov-08 04:32N 27°54' W 082°25'0 0.0
2014-Nov-08 03:29N 27°54' W 082°25'0 0.0
2014-Nov-08 02:29N 27°54' W 082°25'0 0.0
2014-Nov-08 01:32N 27°54' W 082°25'0 0.0
2014-Nov-08 00:32N 27°54' W 082°25'0 0.0
2014-Nov-07 23:32N 27°54' W 082°25'0 0.0
2014-Nov-07 22:32N 27°54' W 082°25'0 0.0
2014-Nov-07 21:32N 27°54' W 082°25'0 0.0
2014-Nov-07 20:32N 27°54' W 082°25'0 0.0
2014-Nov-07 19:32N 27°54' W 082°25'0 0.0
2014-Nov-07 18:32N 27°54' W 082°25'0 0.0
2014-Nov-07 17:32N 27°54' W 082°25'0 0.0
2014-Nov-07 16:32N 27°54' W 082°25'1 1.2
2014-Nov-07 15:34N 27°53' W 082°26'1611.1
2014-Nov-07 14:06N 27°40' W 082°36'611.6
2014-Nov-07 13:33N 27°37' W 082°42'1211.8
2014-Nov-07 12:33N 27°36' W 082°55'7 6.9
2014-Nov-07 11:33N 27°38' W 083°03'1 0.6
2014-Nov-07 10:11N 27°37' W 083°04'0 0.0
2014-Nov-07 09:32N 27°37' W 083°04'0 0.0
2014-Nov-07 08:32N 27°37' W 083°04'0 0.0
2014-Nov-07 07:29N 27°37' W 083°04'0 0.0
2014-Nov-07 06:32N 27°37' W 083°04'5 5.4
2014-Nov-07 05:33N 27°32' W 083°03'8514.2
2014-Nov-06 23:33N 26°07' W 083°08'  

Dump ship's entire track history